createdAt,value
2017-12-01T00:02:17.468Z,38.78
2017-12-01T00:04:45.027Z,40.30
2017-12-01T00:07:12.586Z,37.92
2017-12-01T00:09:40.884Z,38.58
2017-12-01T00:12:08.433Z,34.75
2017-12-01T00:14:35.990Z,46.10
2017-12-01T00:17:03.559Z,38.40
2017-12-01T00:19:31.099Z,32.58
2017-12-01T00:21:58.676Z,38.35
2017-12-01T00:24:26.208Z,42.55
2017-12-01T00:26:53.734Z,37.13
2017-12-01T00:29:22.044Z,34.75
2017-12-01T00:31:49.586Z,56.85
2017-12-01T00:34:17.925Z,34.42
2017-12-01T00:36:45.466Z,40.65
2017-12-01T00:39:12.991Z,40.92
2017-12-01T00:41:40.556Z,41.10
2017-12-01T00:44:08.110Z,41.83
2017-12-01T00:46:36.448Z,42.22
2017-12-01T00:49:03.982Z,44.25
2017-12-01T00:51:31.547Z,43.10
2017-12-01T00:53:59.068Z,48.63
2017-12-01T00:56:27.408Z,34.53
2017-12-01T00:58:54.960Z,36.80
2017-12-01T01:01:22.493Z,34.65
2017-12-01T01:03:50.058Z,41.63
2017-12-01T01:06:17.647Z,36.53
2017-12-01T01:08:45.230Z,27.65
2017-12-01T01:11:12.775Z,35.88
2017-12-01T01:13:40.320Z,33.47
2017-12-01T01:16:07.864Z,31.45
2017-12-01T01:18:35.411Z,34.17
2017-12-01T01:21:03.738Z,29.42
2017-12-01T01:23:32.056Z,36.15
2017-12-01T01:26:00.375Z,32.95
2017-12-01T01:28:27.924Z,34.88
2017-12-01T01:30:55.474Z,33.55
2017-12-01T01:33:23.769Z,37.22
2017-12-01T01:35:51.348Z,34.65
2017-12-01T01:38:18.890Z,39.08
2017-12-01T01:40:46.425Z,42.20
2017-12-01T01:43:14.756Z,31.00
2017-12-01T01:45:42.303Z,37.97
2017-12-01T01:48:09.867Z,37.67
2017-12-01T01:50:37.408Z,35.65
2017-12-01T01:53:04.944Z,39.80
2017-12-01T01:55:32.555Z,38.13
2017-12-01T01:58:00.089Z,39.80
2017-12-01T02:00:27.662Z,35.47
2017-12-01T02:02:55.192Z,38.53
2017-12-01T02:05:22.731Z,31.10
2017-12-01T02:07:50.291Z,33.92
2017-12-01T02:10:17.811Z,33.03
2017-12-01T02:12:45.373Z,38.92
2017-12-01T02:15:12.914Z,43.17
2017-12-01T02:17:41.215Z,38.50
2017-12-01T02:20:08.800Z,31.80
2017-12-01T02:22:36.384Z,33.67
2017-12-01T02:25:03.960Z,39.00
2017-12-01T02:27:31.494Z,33.75
2017-12-01T02:29:59.038Z,36.55
2017-12-01T02:32:26.594Z,32.65
2017-12-01T02:34:54.127Z,31.98
2017-12-01T02:37:22.457Z,37.03
2017-12-01T02:39:49.989Z,30.90
2017-12-01T02:42:17.512Z,33.55
2017-12-01T02:44:45.836Z,41.75
2017-12-01T02:47:13.388Z,42.83
2017-12-01T02:49:40.951Z,31.60
2017-12-01T02:52:08.503Z,38.78
2017-12-01T02:54:36.070Z,37.40
2017-12-01T02:57:03.615Z,29.80
2017-12-01T02:59:31.905Z,34.50
2017-12-01T03:01:59.482Z,38.03
2017-12-01T03:04:27.027Z,36.28
2017-12-01T03:06:54.611Z,39.67
2017-12-01T03:09:22.137Z,35.20
2017-12-01T03:11:50.437Z,43.90
2017-12-01T03:14:17.991Z,37.72
2017-12-01T03:16:45.543Z,38.78
2017-12-01T03:19:13.881Z,32.47
2017-12-01T03:21:41.433Z,37.47
2017-12-01T03:24:09.012Z,35.97
2017-12-01T03:26:36.565Z,34.13
2017-12-01T03:29:04.099Z,35.33
2017-12-01T03:31:31.662Z,38.05
2017-12-01T03:33:59.211Z,30.20
2017-12-01T03:36:26.779Z,32.25
2017-12-01T03:38:54.300Z,36.92
2017-12-01T03:41:22.642Z,38.50
2017-12-01T03:43:50.188Z,44.75
2017-12-01T03:46:17.725Z,44.22
2017-12-01T03:48:45.300Z,45.97
2017-12-01T03:51:12.838Z,42.13
2017-12-01T03:53:41.177Z,42.05
2017-12-01T03:56:08.732Z,41.80
2017-12-01T03:58:36.274Z,43.95
2017-12-01T04:01:03.822Z,46.30
2017-12-01T04:03:31.367Z,43.42
2017-12-01T04:05:59.699Z,38.40
2017-12-01T04:08:27.243Z,41.95
2017-12-01T04:10:54.811Z,45.22
2017-12-01T04:13:22.340Z,38.33
2017-12-01T04:15:49.883Z,52.05
2017-12-01T04:18:18.211Z,52.62
2017-12-01T04:20:45.737Z,55.00
2017-12-01T04:23:14.085Z,49.40
2017-12-01T04:25:41.617Z,45.20
2017-12-01T04:28:09.138Z,53.87
2017-12-01T04:30:37.467Z,49.13
2017-12-01T04:33:04.989Z,50.95
2017-12-01T04:35:32.559Z,68.53
2017-12-01T04:38:00.086Z,53.85
2017-12-01T04:40:28.372Z,56.33
2017-12-01T04:42:56.682Z,51.20
2017-12-01T04:45:24.217Z,62.58
2017-12-01T04:47:52.563Z,46.28
2017-12-01T04:50:20.113Z,55.78
2017-12-01T04:52:47.649Z,55.35
2017-12-01T04:55:15.316Z,50.40
2017-12-01T04:57:42.867Z,52.97
2017-12-01T05:00:10.449Z,51.85
2017-12-01T05:02:37.977Z,62.35
2017-12-01T05:05:05.523Z,64.40
2017-12-01T05:07:33.841Z,51.03
2017-12-01T05:10:01.396Z,60.25
2017-12-01T05:12:28.970Z,50.85
2017-12-01T05:14:56.505Z,48.22
2017-12-01T05:17:24.034Z,55.67
2017-12-01T05:19:51.585Z,61.97
2017-12-01T05:22:19.112Z,54.97
2017-12-01T05:24:46.687Z,63.47
2017-12-01T05:27:14.248Z,57.47
2017-12-01T05:29:41.799Z,59.80
2017-12-01T05:32:09.354Z,56.75
2017-12-01T05:34:37.670Z,68.20
2017-12-01T05:37:05.243Z,48.17
2017-12-01T05:39:32.773Z,49.67
2017-12-01T05:42:00.334Z,54.05
2017-12-01T05:44:27.892Z,58.70
2017-12-01T05:46:55.417Z,51.65
2017-12-01T05:49:22.965Z,44.63
2017-12-01T05:51:51.261Z,51.60
2017-12-01T05:54:18.809Z,46.22
2017-12-01T05:56:47.108Z,57.65
2017-12-01T05:59:14.682Z,51.85
2017-12-01T06:01:42.214Z,47.28
2017-12-01T06:04:10.510Z,55.05
2017-12-01T06:06:38.072Z,46.50
2017-12-01T06:09:05.615Z,61.47
2017-12-01T06:11:33.942Z,60.95
2017-12-01T06:14:01.474Z,57.60
2017-12-01T06:16:29.005Z,56.28
2017-12-01T06:18:57.322Z,55.08
2017-12-01T06:21:24.852Z,50.90
2017-12-01T06:23:53.195Z,46.58
2017-12-01T06:26:20.722Z,52.70
2017-12-01T06:28:48.289Z,58.72
2017-12-01T06:31:15.836Z,46.72
2017-12-01T06:33:43.379Z,48.10
2017-12-01T06:36:11.731Z,53.53
2017-12-01T06:38:39.264Z,53.45
2017-12-01T06:41:06.805Z,54.15
2017-12-01T06:43:35.206Z,45.95
2017-12-01T06:46:02.741Z,54.83
2017-12-01T06:48:30.312Z,65.95
2017-12-01T06:50:57.891Z,55.28
2017-12-01T06:53:25.462Z,53.85
2017-12-01T06:55:53.142Z,50.90
2017-12-01T06:58:21.719Z,62.40
2017-12-01T07:00:49.293Z,66.15
2017-12-01T07:03:16.849Z,59.05
2017-12-01T07:05:44.413Z,57.50
2017-12-01T07:08:12.022Z,56.78
2017-12-01T07:10:41.290Z,64.03
2017-12-01T07:13:09.647Z,55.70
2017-12-01T07:15:37.187Z,55.97
2017-12-01T07:18:04.738Z,59.63
2017-12-01T07:20:32.513Z,83.10
2017-12-01T07:23:00.080Z,62.22
2017-12-01T07:25:27.656Z,67.78
2017-12-01T07:27:55.200Z,67.60
2017-12-01T07:30:22.760Z,58.00
2017-12-01T07:32:50.329Z,73.07
2017-12-01T07:35:17.910Z,73.60
2017-12-01T07:37:45.467Z,63.63
2017-12-01T07:40:13.011Z,76.70
2017-12-01T07:42:40.570Z,71.55
2017-12-01T07:45:14.547Z,75.00
2017-12-01T07:47:42.865Z,65.00
2017-12-01T07:50:10.399Z,81.95
2017-12-01T07:52:37.948Z,61.28
2017-12-01T07:55:06.245Z,55.95
2017-12-01T07:57:33.810Z,57.30
2017-12-01T08:00:01.355Z,54.88
2017-12-01T08:02:29.651Z,76.35
2017-12-01T08:04:57.228Z,75.15
2017-12-01T08:07:25.378Z,54.75
2017-12-01T08:09:52.945Z,58.03
2017-12-01T08:12:20.481Z,51.95
2017-12-01T08:14:48.805Z,55.97
2017-12-01T08:17:28.281Z,63.13
2017-12-01T08:19:55.827Z,60.95
2017-12-01T08:22:35.208Z,54.97
2017-12-01T08:25:15.341Z,61.42
2017-12-01T08:27:42.911Z,55.50
2017-12-01T08:30:10.447Z,74.75
2017-12-01T08:32:38.023Z,63.58
2017-12-01T08:35:05.554Z,70.62
2017-12-01T08:37:33.089Z,58.90
2017-12-01T08:40:00.637Z,64.12
2017-12-01T08:42:28.938Z,51.45
2017-12-01T08:44:56.521Z,74.37
2017-12-01T08:47:24.058Z,51.95
2017-12-01T08:49:51.593Z,58.40
2017-12-01T08:52:19.914Z,51.97
2017-12-01T08:54:47.524Z,55.42
2017-12-01T08:57:15.090Z,55.58
2017-12-01T08:59:42.640Z,50.47
2017-12-01T09:02:10.227Z,63.53
2017-12-01T09:04:38.575Z,60.03
2017-12-01T09:07:06.125Z,54.85
2017-12-01T09:09:33.709Z,56.92
2017-12-01T09:12:01.246Z,51.15
2017-12-01T09:14:28.793Z,61.78
2017-12-01T09:16:56.360Z,48.17
2017-12-01T09:19:23.927Z,52.00
2017-12-01T09:21:51.480Z,56.92
2017-12-01T09:24:19.013Z,51.70
2017-12-01T09:26:46.581Z,45.97
2017-12-01T09:29:14.131Z,53.08
2017-12-01T09:31:42.436Z,49.42
2017-12-01T09:34:10.020Z,59.72
2017-12-01T09:36:37.558Z,51.50
2017-12-01T09:39:05.094Z,50.92
2017-12-01T09:41:33.417Z,42.22
2017-12-01T09:44:00.960Z,48.80
2017-12-01T09:46:28.516Z,49.50
2017-12-01T09:48:56.070Z,60.20
2017-12-01T09:51:23.651Z,46.22
2017-12-01T09:53:51.195Z,49.75
2017-12-01T09:56:18.758Z,52.20
2017-12-01T09:58:46.331Z,41.05
2017-12-01T10:01:13.865Z,55.38
2017-12-01T10:03:42.206Z,56.90
2017-12-01T10:06:09.755Z,50.67
2017-12-01T10:08:37.299Z,51.03
2017-12-01T10:11:04.868Z,55.15
2017-12-01T10:13:32.415Z,50.17
2017-12-01T10:15:59.973Z,59.60
2017-12-01T10:18:27.572Z,53.20
2017-12-01T10:20:55.126Z,47.92
2017-12-01T10:23:22.679Z,57.42
2017-12-01T10:25:50.236Z,48.17
2017-12-01T10:28:17.812Z,58.22
2017-12-01T10:30:45.357Z,53.75
2017-12-01T10:33:12.906Z,62.80
2017-12-01T10:35:40.467Z,50.22
2017-12-01T10:38:08.006Z,46.50
2017-12-01T10:40:36.344Z,60.45
2017-12-01T10:43:03.892Z,60.20
2017-12-01T10:45:31.443Z,64.68
2017-12-01T10:47:59.003Z,51.55
2017-12-01T10:50:26.635Z,53.33
2017-12-01T10:52:54.979Z,45.33
2017-12-01T10:55:22.519Z,51.03
2017-12-01T10:57:50.079Z,42.00
2017-12-01T11:00:17.618Z,43.92
2017-12-01T11:02:45.182Z,48.25
2017-12-01T11:05:12.725Z,52.60
2017-12-01T11:07:41.058Z,46.97
2017-12-01T11:10:08.603Z,53.33
2017-12-01T11:12:36.154Z,61.28
2017-12-01T11:15:03.709Z,46.30
2017-12-01T11:17:31.240Z,42.62
2017-12-01T11:19:59.558Z,48.85
2017-12-01T11:22:27.089Z,45.45
2017-12-01T11:24:55.404Z,43.35
2017-12-01T11:27:22.958Z,38.67
2017-12-01T11:29:50.536Z,46.95
2017-12-01T11:32:18.090Z,48.60
2017-12-01T11:34:45.644Z,42.88
2017-12-01T11:37:13.200Z,50.17
2017-12-01T11:39:40.772Z,42.65
2017-12-01T11:42:08.303Z,39.80
2017-12-01T11:44:36.624Z,41.13
2017-12-01T11:47:04.173Z,36.35
2017-12-01T11:49:31.740Z,34.97
2017-12-01T11:51:59.296Z,33.78
2017-12-01T11:54:26.874Z,39.28
2017-12-01T11:56:54.403Z,32.88
2017-12-01T11:59:21.970Z,47.62
2017-12-01T12:01:49.542Z,38.72
2017-12-01T12:04:17.088Z,56.25
2017-12-01T12:06:44.653Z,34.15
2017-12-01T12:09:12.256Z,32.90
2017-12-01T12:11:39.810Z,39.55
2017-12-01T12:14:07.385Z,33.95
2017-12-01T12:16:34.959Z,44.67
2017-12-01T12:19:02.546Z,36.40
2017-12-01T12:21:30.857Z,34.45
2017-12-01T12:23:58.392Z,33.70
2017-12-01T12:26:25.963Z,44.35
2017-12-01T12:28:53.527Z,31.58
2017-12-01T12:31:21.111Z,29.10
2017-12-01T12:33:48.638Z,27.42
2017-12-01T12:36:16.949Z,30.67
2017-12-01T12:38:44.502Z,37.33
2017-12-01T12:41:12.034Z,35.13
2017-12-01T12:43:40.367Z,31.50
2017-12-01T12:46:07.888Z,24.33
2017-12-01T12:48:35.450Z,25.60
2017-12-01T12:51:03.000Z,14.18
2017-12-01T12:53:31.297Z,20.10
2017-12-01T12:55:58.851Z,16.12
2017-12-01T12:58:26.388Z,24.67
2017-12-01T13:00:54.728Z,17.62
2017-12-01T13:03:22.257Z,17.75
2017-12-01T13:05:49.792Z,18.73
2017-12-01T13:08:18.113Z,17.73
2017-12-01T13:10:45.641Z,16.98
2017-12-01T13:13:13.958Z,14.30
2017-12-01T13:15:41.514Z,19.00
2017-12-01T13:18:09.074Z,16.35
2017-12-01T13:20:36.624Z,23.27
2017-12-01T13:23:04.165Z,13.00
2017-12-01T13:25:32.494Z,19.55
2017-12-01T13:28:00.050Z,18.77
2017-12-01T13:30:27.577Z,19.42
2017-12-01T13:32:55.123Z,16.70
2017-12-01T13:35:23.413Z,20.98
2017-12-01T13:37:51.756Z,21.37
2017-12-01T13:40:19.284Z,20.62
2017-12-01T13:42:46.991Z,14.80
2017-12-01T13:45:14.525Z,23.75
2017-12-01T13:47:42.081Z,22.77
2017-12-01T13:50:09.668Z,18.80
2017-12-01T13:52:37.300Z,26.15
2017-12-01T13:55:04.849Z,25.98
2017-12-01T13:57:32.410Z,21.10
2017-12-01T13:59:59.946Z,18.42
2017-12-01T14:02:28.286Z,19.00
2017-12-01T14:04:55.831Z,25.62
2017-12-01T14:07:23.377Z,33.70
2017-12-01T14:09:50.920Z,28.95
2017-12-01T14:12:18.459Z,17.95
2017-12-01T14:14:46.807Z,23.65
2017-12-01T14:17:14.579Z,29.35
2017-12-01T14:19:42.113Z,23.23
2017-12-01T14:22:09.666Z,29.65
2017-12-01T14:24:37.263Z,36.80
2017-12-01T14:27:04.819Z,46.88
2017-12-01T14:29:32.346Z,28.12
2017-12-01T14:31:59.887Z,29.90
2017-12-01T14:34:28.201Z,32.63
2017-12-01T14:36:55.733Z,35.60
2017-12-01T14:39:24.072Z,27.02
2017-12-01T14:41:51.620Z,29.80
2017-12-01T14:44:19.179Z,32.80
2017-12-01T14:46:46.741Z,30.55
2017-12-01T14:49:14.287Z,29.37
2017-12-01T14:51:41.951Z,36.95
2017-12-01T14:54:09.551Z,36.03
2017-12-01T14:56:37.074Z,35.53
2017-12-01T14:59:04.643Z,45.05
2017-12-01T15:01:32.183Z,39.00
2017-12-01T15:03:59.765Z,32.67
2017-12-01T15:06:27.313Z,41.28
2017-12-01T15:08:54.855Z,34.35
2017-12-01T15:11:23.169Z,38.53
2017-12-01T15:13:50.698Z,35.20
2017-12-01T15:16:18.264Z,35.53
2017-12-01T15:18:45.819Z,44.00
2017-12-01T15:21:14.152Z,34.17
2017-12-01T15:23:41.700Z,35.05
2017-12-01T15:26:09.262Z,35.40
2017-12-01T15:28:37.626Z,48.67
2017-12-01T15:31:05.171Z,39.83
2017-12-01T15:33:32.731Z,62.40
2017-12-01T15:36:00.275Z,55.95
2017-12-01T15:38:28.616Z,72.72
2017-12-01T15:40:56.153Z,53.05
2017-12-01T15:43:23.693Z,48.80
2017-12-01T15:45:51.253Z,36.03
2017-12-01T15:48:19.540Z,42.80
2017-12-01T15:50:47.092Z,52.67
2017-12-01T15:53:15.380Z,39.03
2017-12-01T15:55:42.935Z,42.08
2017-12-01T15:58:10.527Z,53.03
2017-12-01T16:00:38.100Z,53.75
2017-12-01T16:03:05.673Z,53.08
2017-12-01T16:05:33.230Z,66.37
2017-12-01T16:08:00.767Z,52.35
2017-12-01T16:10:28.322Z,36.42
2017-12-01T16:12:55.853Z,40.05
2017-12-01T16:15:24.203Z,42.80
2017-12-01T16:17:51.751Z,47.50
2017-12-01T16:20:19.292Z,44.13
2017-12-01T16:22:47.712Z,44.88
2017-12-01T16:25:16.131Z,48.10
2017-12-01T16:27:44.467Z,41.13
2017-12-01T16:30:12.022Z,43.28
2017-12-01T16:32:42.434Z,39.55
2017-12-01T16:35:07.138Z,35.88
2017-12-01T16:37:35.793Z,42.05
2017-12-01T16:40:03.475Z,43.67
2017-12-01T16:42:31.017Z,45.88
2017-12-01T16:44:58.567Z,41.30
2017-12-01T16:47:26.902Z,57.13
2017-12-01T16:49:54.605Z,64.78
2017-12-01T16:52:23.330Z,120.60
2017-12-01T16:54:50.857Z,97.45
2017-12-01T16:57:19.182Z,112.07
2017-12-01T16:59:46.732Z,96.85
2017-12-01T17:02:14.283Z,72.65
2017-12-01T17:04:41.852Z,75.53
2017-12-01T17:07:10.535Z,76.87
2017-12-01T17:09:39.586Z,71.72
2017-12-01T17:12:07.139Z,66.25
2017-12-01T17:14:34.777Z,52.85
2017-12-01T17:17:03.521Z,53.05
2017-12-01T17:19:32.939Z,52.92
2017-12-01T17:22:00.506Z,65.30
2017-12-01T17:24:28.067Z,55.25
2017-12-01T17:26:55.630Z,56.42
2017-12-01T17:29:23.170Z,53.08
2017-12-01T17:31:51.506Z,51.92
2017-12-01T17:34:19.062Z,56.95
2017-12-01T17:36:46.736Z,45.50
2017-12-01T17:39:14.291Z,55.00
2017-12-01T17:41:41.847Z,60.50
2017-12-01T17:44:10.201Z,45.83
2017-12-01T17:46:37.734Z,57.58
2017-12-01T17:49:06.076Z,47.15
2017-12-01T17:51:34.453Z,53.50
2017-12-01T17:54:01.986Z,54.10
2017-12-01T17:56:29.564Z,48.22
2017-12-01T17:58:57.121Z,50.42
2017-12-01T18:01:24.695Z,45.25
2017-12-01T18:03:52.244Z,54.28
2017-12-01T18:06:19.795Z,55.30
2017-12-01T18:08:47.447Z,55.47
2017-12-01T18:11:15.004Z,79.40
2017-12-01T18:13:44.380Z,59.58
2017-12-01T18:16:11.940Z,66.40
2017-12-01T18:18:39.513Z,59.83
2017-12-01T18:21:07.841Z,73.93
2017-12-01T18:23:35.618Z,63.28
2017-12-01T18:26:03.169Z,52.47
2017-12-01T18:28:30.720Z,52.05
2017-12-01T18:30:58.321Z,59.22
2017-12-01T18:33:25.897Z,62.08
2017-12-01T18:35:53.480Z,60.75
2017-12-01T18:38:21.789Z,57.95
2017-12-01T18:40:49.320Z,58.63
2017-12-01T18:43:17.684Z,63.45
2017-12-01T18:45:45.234Z,40.28
2017-12-01T18:48:12.798Z,55.25
2017-12-01T18:50:40.340Z,91.47
2017-12-01T18:53:07.876Z,73.45
2017-12-01T18:55:35.425Z,60.72
2017-12-01T18:58:02.970Z,63.53
2017-12-01T19:00:31.472Z,67.62
2017-12-01T19:02:59.024Z,62.80
2017-12-01T19:05:26.614Z,74.18
2017-12-01T19:07:54.181Z,61.88
2017-12-01T19:10:21.810Z,54.72
2017-12-01T19:12:49.387Z,63.10
2017-12-01T19:15:16.938Z,61.47
2017-12-01T19:17:44.517Z,57.08
2017-12-01T19:20:12.066Z,55.12
2017-12-01T19:22:39.636Z,78.25
2017-12-01T19:25:07.193Z,62.10
2017-12-01T19:27:34.762Z,58.85
2017-12-01T19:30:02.320Z,54.05
2017-12-01T19:32:29.881Z,82.07
2017-12-01T19:34:57.431Z,65.80
2017-12-01T19:37:25.756Z,61.40
2017-12-01T19:39:53.309Z,60.55
2017-12-01T19:42:20.859Z,66.57
2017-12-01T19:44:48.431Z,59.55
2017-12-01T19:47:15.989Z,69.35
2017-12-01T19:49:43.562Z,51.50
2017-12-01T19:52:11.093Z,64.28
2017-12-01T19:54:38.649Z,58.08
2017-12-01T19:57:06.206Z,62.92
2017-12-01T19:59:33.749Z,56.42
2017-12-01T20:02:02.085Z,52.08
2017-12-01T20:04:29.612Z,55.65
2017-12-01T20:06:57.156Z,51.33
2017-12-01T20:09:25.496Z,54.55
2017-12-01T20:11:53.835Z,65.78
2017-12-01T20:14:21.405Z,52.42
2017-12-01T20:16:52.921Z,51.55
2017-12-01T20:19:21.250Z,43.95
2017-12-01T20:21:48.789Z,62.88
2017-12-01T20:24:16.373Z,52.22
2017-12-01T20:26:43.906Z,61.63
2017-12-01T20:29:11.490Z,56.28
2017-12-01T20:31:39.021Z,52.33
2017-12-01T20:34:07.336Z,54.25
2017-12-01T20:36:34.907Z,57.15
2017-12-01T20:39:02.454Z,56.00
2017-12-01T20:41:30.044Z,56.37
2017-12-01T20:43:57.660Z,55.70
2017-12-01T20:46:25.206Z,56.33
2017-12-01T20:48:53.540Z,53.60
2017-12-01T20:51:21.096Z,72.15
2017-12-01T20:53:48.679Z,60.30
2017-12-01T20:56:16.225Z,53.00
2017-12-01T20:58:43.785Z,62.60
2017-12-01T21:01:11.317Z,55.08
2017-12-01T21:03:38.887Z,58.75
2017-12-01T21:06:06.435Z,55.20
2017-12-01T21:08:33.973Z,57.30
2017-12-01T21:11:02.311Z,59.55
2017-12-01T21:13:29.854Z,70.50
2017-12-01T21:15:57.426Z,55.55
2017-12-01T21:18:24.979Z,59.60
2017-12-01T21:20:52.509Z,64.25
2017-12-01T21:23:20.828Z,78.55
2017-12-01T21:25:48.385Z,67.40
2017-12-01T21:28:15.951Z,60.72
2017-12-01T21:30:43.494Z,61.35
2017-12-01T21:33:11.048Z,58.30
2017-12-01T21:35:38.590Z,52.42
2017-12-01T21:38:06.909Z,56.42
2017-12-01T21:40:34.495Z,52.88
2017-12-01T21:43:02.047Z,61.17
2017-12-01T21:45:29.633Z,65.80
2017-12-01T21:47:57.178Z,70.28
2017-12-01T21:50:24.711Z,67.43
2017-12-01T21:52:52.277Z,55.40
2017-12-01T21:55:19.842Z,53.78
2017-12-01T21:57:47.429Z,71.97
2017-12-01T22:00:14.994Z,64.85
2017-12-01T22:02:42.578Z,67.40
2017-12-01T22:05:10.147Z,58.28
2017-12-01T22:07:38.475Z,61.08
2017-12-01T22:10:06.135Z,58.30
2017-12-01T22:12:33.788Z,68.07
2017-12-01T22:15:01.340Z,58.38
2017-12-01T22:17:28.912Z,49.90
2017-12-01T22:19:56.463Z,55.28
2017-12-01T22:22:24.050Z,67.55
2017-12-01T22:24:51.591Z,64.35
2017-12-01T22:27:19.148Z,75.93
2017-12-01T22:29:46.704Z,53.47
2017-12-01T22:32:15.007Z,55.78
2017-12-01T22:34:42.586Z,52.88
2017-12-01T22:37:10.135Z,58.42
2017-12-01T22:39:37.696Z,49.40
2017-12-01T22:42:05.276Z,61.63
2017-12-01T22:44:32.832Z,71.60
2017-12-01T22:47:00.423Z,59.75
2017-12-01T22:49:27.957Z,57.17
2017-12-01T22:51:55.512Z,62.67
2017-12-01T22:54:23.066Z,61.60
2017-12-01T22:56:50.600Z,60.70
2017-12-01T22:59:18.937Z,60.40
2017-12-01T23:01:46.472Z,58.35
2017-12-01T23:04:14.013Z,72.18
2017-12-01T23:06:41.573Z,64.10
2017-12-01T23:09:09.100Z,54.63
2017-12-01T23:11:36.653Z,67.43
2017-12-01T23:14:04.200Z,52.33
2017-12-01T23:16:31.787Z,59.72
2017-12-01T23:19:00.095Z,70.37
2017-12-01T23:21:27.686Z,53.47
2017-12-01T23:23:55.203Z,75.07
2017-12-01T23:26:23.524Z,68.90
2017-12-01T23:28:51.076Z,72.53
2017-12-01T23:31:18.619Z,65.45
2017-12-01T23:33:46.187Z,69.85
2017-12-01T23:36:13.718Z,64.85
2017-12-01T23:38:42.035Z,70.82
2017-12-01T23:41:09.561Z,60.72
2017-12-01T23:43:37.913Z,87.60
2017-12-01T23:46:05.475Z,71.20
2017-12-01T23:48:33.049Z,90.12
2017-12-01T23:51:00.584Z,68.60
2017-12-01T23:53:28.140Z,103.12
2017-12-01T23:55:55.702Z,105.20
2017-12-01T23:58:23.236Z,175.35
